createdAt,value
2023-01-04T00:01:28.529Z,79.81
2023-01-04T00:03:56.197Z,80.17
2023-01-04T00:06:23.572Z,81.42
2023-01-04T00:08:50.886Z,81.09
2023-01-04T00:11:21.426Z,80.92
2023-01-04T00:13:51.013Z,80.63
2023-01-04T00:16:23.595Z,80.82
2023-01-04T00:18:52.863Z,78.70
2023-01-04T00:21:26.348Z,81.17
2023-01-04T00:23:57.101Z,83.00
2023-01-04T00:26:32.700Z,82.30
2023-01-04T00:29:07.724Z,85.61
2023-01-04T00:31:35.903Z,88.09
2023-01-04T00:34:05.446Z,89.88
2023-01-04T00:36:33.652Z,88.67
2023-01-04T00:39:08.903Z,89.47
2023-01-04T00:44:30.617Z,89.41
2023-01-04T00:46:58.461Z,88.90
2023-01-04T00:49:26.991Z,91.20
2023-01-04T00:51:55.275Z,90.99
2023-01-04T00:54:22.904Z,90.08
2023-01-04T00:56:50.415Z,93.99
2023-01-04T00:59:20.799Z,91.98
2023-01-04T01:01:48.772Z,93.96
2023-01-04T01:04:19.142Z,94.67
2023-01-04T01:06:47.114Z,95.35
2023-01-04T01:09:15.225Z,94.41
2023-01-04T01:11:42.731Z,88.34
2023-01-04T01:14:17.784Z,94.07
2023-01-04T01:16:55.210Z,94.09
2023-01-04T01:19:26.552Z,93.70
2023-01-04T01:21:54.033Z,95.08
2023-01-04T01:24:21.423Z,94.42
2023-01-04T01:26:49.208Z,93.89
2023-01-04T01:29:16.647Z,92.78
2023-01-04T01:31:44.253Z,92.89
2023-01-04T01:34:11.859Z,92.39
2023-01-04T01:36:39.130Z,92.82
2023-01-04T01:39:06.984Z,93.43
2023-01-04T01:41:35.753Z,92.98
2023-01-04T01:44:27.549Z,92.16
2023-01-04T01:46:55.662Z,91.61
2023-01-04T01:49:33.865Z,90.89
2023-01-04T01:52:09.348Z,90.56
2023-01-04T01:54:42.344Z,90.43
2023-01-04T01:57:13.990Z,90.94
2023-01-04T01:59:44.365Z,91.48
2023-01-04T02:02:12.831Z,90.64
2023-01-04T02:04:45.080Z,90.79
2023-01-04T02:07:14.853Z,91.09
2023-01-04T02:09:43.037Z,91.55
2023-01-04T02:12:14.326Z,91.48
2023-01-04T02:14:44.430Z,91.72
2023-01-04T02:17:17.334Z,91.77
2023-01-04T02:19:57.631Z,92.07
2023-01-04T02:22:58.868Z,91.56
2023-01-04T02:25:26.412Z,91.39
2023-01-04T02:27:58.054Z,91.14
2023-01-04T02:30:44.195Z,90.75
2023-01-04T02:33:15.173Z,91.18
2023-01-04T02:36:00.659Z,90.95
2023-01-04T02:38:43.478Z,91.13
2023-01-04T02:41:25.952Z,90.82
2023-01-04T02:44:26.796Z,90.64
2023-01-04T02:47:03.238Z,91.11
2023-01-04T02:49:49.590Z,90.78
2023-01-04T02:52:17.051Z,89.66
2023-01-04T02:54:46.004Z,89.92
2023-01-04T02:57:13.214Z,89.88
2023-01-04T02:59:55.739Z,91.26
2023-01-04T03:03:00.911Z,90.41
2023-01-04T03:06:01.949Z,91.08
2023-01-04T03:08:38.589Z,90.23
2023-01-04T03:11:33.673Z,90.50
2023-01-04T03:14:32.573Z,91.21
2023-01-04T03:16:56.486Z,90.54
2023-01-04T03:19:44.666Z,90.05
2023-01-04T03:22:34.666Z,90.86
2023-01-04T03:25:23.437Z,91.30
2023-01-04T03:28:12.406Z,90.54
2023-01-04T03:31:09.792Z,89.48
2023-01-04T03:33:56.123Z,88.36
2023-01-04T03:36:46.617Z,87.88
2023-01-04T03:39:51.363Z,88.05
2023-01-04T03:42:56.024Z,86.54
2023-01-04T03:45:46.991Z,85.48
2023-01-04T03:48:32.580Z,85.41
2023-01-04T03:51:26.171Z,87.06
2023-01-04T03:54:00.137Z,86.60
2023-01-04T03:56:29.899Z,87.66
2023-01-04T03:58:58.207Z,87.97
2023-01-04T04:01:27.504Z,88.67
2023-01-04T04:04:14.859Z,88.00
2023-01-04T04:07:01.228Z,88.16
2023-01-04T04:09:29.603Z,90.76
2023-01-04T04:11:57.722Z,90.69
2023-01-04T04:14:25.981Z,87.35
2023-01-04T04:16:53.775Z,88.55
2023-01-04T04:19:22.532Z,90.08
2023-01-04T04:21:50.425Z,92.26
2023-01-04T04:24:28.218Z,91.71
2023-01-04T04:26:56.245Z,91.66
2023-01-04T04:29:25.547Z,92.38
2023-01-04T04:31:54.049Z,93.16
2023-01-04T04:34:21.749Z,92.53
2023-01-04T04:36:50.280Z,94.18
2023-01-04T04:39:20.940Z,91.84
2023-01-04T04:41:49.611Z,93.37
2023-01-04T04:44:20.058Z,92.84
2023-01-04T04:46:48.743Z,92.78
2023-01-04T04:49:18.905Z,93.25
2023-01-04T04:51:47.209Z,93.21
2023-01-04T04:54:20.756Z,93.55
2023-01-04T04:56:50.258Z,94.50
2023-01-04T04:59:18.119Z,93.45
2023-01-04T05:01:45.905Z,94.04
2023-01-04T05:04:19.927Z,94.17
2023-01-04T05:06:49.449Z,93.06
2023-01-04T05:09:17.269Z,92.79
2023-01-04T05:12:03.425Z,92.46
2023-01-04T05:14:31.485Z,93.05
2023-01-04T05:16:58.916Z,92.97
2023-01-04T05:19:26.380Z,92.88
2023-01-04T05:21:54.206Z,92.61
2023-01-04T05:24:21.712Z,93.32
2023-01-04T05:26:49.085Z,93.43
2023-01-04T05:29:35.366Z,93.12
2023-01-04T05:32:02.908Z,93.53
2023-01-04T05:34:30.540Z,94.14
2023-01-04T05:36:58.131Z,92.79
2023-01-04T05:39:25.606Z,93.05
2023-01-04T05:42:11.719Z,92.81
2023-01-04T05:44:39.130Z,92.91
2023-01-04T05:47:12.887Z,92.61
2023-01-04T05:49:42.323Z,92.65
2023-01-04T05:52:11.989Z,92.29
2023-01-04T05:54:39.845Z,92.27
2023-01-04T05:57:08.132Z,92.09
2023-01-04T05:59:41.560Z,91.57
2023-01-04T06:02:20.496Z,91.27
2023-01-04T06:04:52.949Z,92.24
2023-01-04T06:07:24.701Z,91.68
2023-01-04T06:09:52.362Z,91.05
2023-01-04T06:12:19.774Z,91.77
2023-01-04T06:14:47.365Z,92.50
2023-01-04T06:17:15.018Z,91.63
2023-01-04T06:19:42.567Z,90.92
2023-01-04T06:22:09.910Z,91.08
2023-01-04T06:24:37.508Z,91.10
2023-01-04T06:27:04.949Z,91.38
2023-01-04T06:29:32.411Z,91.11
2023-01-04T06:32:00.179Z,90.29
2023-01-04T06:34:31.082Z,89.77
2023-01-04T06:36:59.317Z,89.88
2023-01-04T06:39:27.122Z,89.91
2023-01-04T06:41:56.981Z,88.53
2023-01-04T06:44:29.911Z,89.22
2023-01-04T06:46:57.396Z,88.82
2023-01-04T06:49:25.016Z,88.53
2023-01-04T06:51:52.664Z,89.13
2023-01-04T06:54:20.153Z,88.24
2023-01-04T06:56:47.607Z,88.42
2023-01-04T06:59:15.534Z,87.60
2023-01-04T07:01:43.328Z,87.81
2023-01-04T07:04:10.819Z,87.44
2023-01-04T07:06:38.572Z,86.18
2023-01-04T07:09:06.045Z,85.53
2023-01-04T07:11:33.489Z,85.87
2023-01-04T07:14:01.402Z,86.70
2023-01-04T07:16:28.766Z,85.76
2023-01-04T07:18:56.325Z,86.17
2023-01-04T07:21:26.458Z,85.90
2023-01-04T07:23:54.059Z,85.24
2023-01-04T07:26:21.450Z,85.98
2023-01-04T07:29:07.761Z,86.09
2023-01-04T07:31:35.398Z,85.16
2023-01-04T07:34:03.380Z,84.58
2023-01-04T07:36:30.914Z,84.87
2023-01-04T07:39:02.295Z,85.99
2023-01-04T07:41:30.670Z,85.25
2023-01-04T07:43:58.073Z,84.85
2023-01-04T07:46:25.589Z,84.58
2023-01-04T07:48:53.336Z,84.35
2023-01-04T07:51:21.882Z,83.36
2023-01-04T07:53:49.316Z,83.12
2023-01-04T07:56:19.067Z,83.75
2023-01-04T07:58:46.592Z,82.92
2023-01-04T08:01:18.807Z,82.90
2023-01-04T08:03:47.903Z,82.62
2023-01-04T08:06:16.956Z,82.68
2023-01-04T08:08:44.844Z,83.39
2023-01-04T08:11:18.408Z,83.61
2023-01-04T08:13:48.572Z,82.91
2023-01-04T08:16:34.838Z,82.39
2023-01-04T08:19:08.740Z,83.22
2023-01-04T08:21:36.929Z,81.59
2023-01-04T08:24:05.440Z,82.67
2023-01-04T08:26:33.329Z,82.74
2023-01-04T08:29:01.122Z,83.04
2023-01-04T08:31:30.968Z,83.38
2023-01-04T08:33:59.782Z,83.81
2023-01-04T08:36:29.966Z,83.17
2023-01-04T08:39:02.870Z,82.77
2023-01-04T08:44:24.557Z,83.84
2023-01-04T08:46:53.725Z,83.07
2023-01-04T08:49:22.475Z,83.01
2023-01-04T08:51:49.970Z,82.83
2023-01-04T08:54:18.109Z,82.81
2023-01-04T08:56:45.569Z,83.60
2023-01-04T08:59:13.915Z,83.10
2023-01-04T09:01:42.471Z,83.20
2023-01-04T09:04:10.176Z,82.55
2023-01-04T09:06:38.656Z,82.35
2023-01-04T09:09:07.055Z,82.71
2023-01-04T09:11:35.978Z,82.43
2023-01-04T09:14:08.572Z,82.82
2023-01-04T09:16:40.739Z,81.96
2023-01-04T09:19:08.556Z,83.55
2023-01-04T09:21:35.956Z,83.05
2023-01-04T09:24:05.021Z,83.48
2023-01-04T09:26:32.347Z,83.12
2023-01-04T09:28:59.810Z,83.19
2023-01-04T09:31:29.141Z,84.75
2023-01-04T09:34:15.759Z,83.61
2023-01-04T09:36:46.157Z,82.95
2023-01-04T09:39:21.481Z,83.88
2023-01-04T09:41:55.197Z,84.22
2023-01-04T09:45:21.548Z,84.03
2023-01-04T09:47:39.901Z,84.20
2023-01-04T09:50:29.752Z,83.84
2023-01-04T09:53:10.228Z,84.30
2023-01-04T09:55:43.557Z,84.91
2023-01-04T09:58:33.085Z,84.43
2023-01-04T10:01:05.430Z,84.58
2023-01-04T10:03:39.260Z,84.10
2023-01-04T10:06:12.104Z,83.16
2023-01-04T10:08:42.758Z,84.06
2023-01-04T10:11:28.786Z,83.76
2023-01-04T10:14:24.912Z,83.76
2023-01-04T10:17:28.248Z,83.10
2023-01-04T10:21:20.791Z,84.56
2023-01-04T10:23:41.164Z,84.02
2023-01-04T10:26:08.848Z,84.16
2023-01-04T10:28:39.580Z,84.98
2023-01-04T10:31:39.440Z,85.10
2023-01-04T10:34:24.510Z,83.96
2023-01-04T10:37:00.972Z,83.61
2023-01-04T10:39:36.161Z,83.57
2023-01-04T10:42:22.501Z,83.36
2023-01-04T10:45:16.134Z,82.73
2023-01-04T10:48:13.595Z,82.49
2023-01-04T10:50:55.353Z,82.06
2023-01-04T10:53:33.767Z,83.24
2023-01-04T10:56:23.877Z,81.79
2023-01-04T10:58:55.103Z,81.88
2023-01-04T11:01:45.412Z,81.51
2023-01-04T11:04:29.177Z,81.29
2023-01-04T11:07:13.672Z,82.37
2023-01-04T11:09:50.392Z,81.13
2023-01-04T11:12:23.006Z,82.47
2023-01-04T11:14:53.244Z,81.35
2023-01-04T11:17:24.215Z,82.27
2023-01-04T11:19:51.634Z,80.97
2023-01-04T11:22:30.520Z,81.53
2023-01-04T11:27:59.180Z,81.72
2023-01-04T11:30:35.933Z,82.10
2023-01-04T11:33:11.427Z,82.56
2023-01-04T11:35:56.001Z,82.32
2023-01-04T11:38:28.372Z,81.30
2023-01-04T11:40:56.076Z,80.95
2023-01-04T11:43:24.743Z,80.85
2023-01-04T11:45:56.660Z,80.64
2023-01-04T11:48:43.024Z,81.58
2023-01-04T11:51:37.036Z,80.42
2023-01-04T11:54:24.984Z,79.71
2023-01-04T11:57:11.697Z,80.28
2023-01-04T11:59:40.103Z,79.92
2023-01-04T12:02:59.365Z,79.72
2023-01-04T12:05:28.171Z,79.99
2023-01-04T12:07:58.373Z,79.97
2023-01-04T12:10:28.112Z,80.66
2023-01-04T12:12:57.872Z,80.26
2023-01-04T12:15:34.640Z,81.68
2023-01-04T12:18:15.382Z,81.35
2023-01-04T12:20:43.626Z,81.76
2023-01-04T12:23:13.216Z,81.81
2023-01-04T12:25:46.825Z,80.85
2023-01-04T12:28:36.042Z,79.72
2023-01-04T12:31:22.395Z,79.99
2023-01-04T12:33:56.387Z,79.44
2023-01-04T12:36:39.024Z,78.38
2023-01-04T12:39:55.956Z,77.74
2023-01-04T12:42:27.137Z,76.37
2023-01-04T12:44:56.169Z,71.59
2023-01-04T12:47:48.363Z,70.78
2023-01-04T12:50:25.225Z,68.53
2023-01-04T12:53:29.567Z,63.13
2023-01-04T12:55:52.885Z,62.96
2023-01-04T13:02:24.949Z,66.13
2023-01-04T13:05:25.644Z,69.04
2023-01-04T13:07:55.461Z,69.56
2023-01-04T13:10:34.192Z,71.29
2023-01-04T13:13:28.277Z,71.52
2023-01-04T13:16:03.312Z,71.81
2023-01-04T13:18:34.459Z,72.30
2023-01-04T13:21:12.956Z,73.21
2023-01-04T13:23:46.799Z,73.63
2023-01-04T13:26:43.353Z,73.67
2023-01-04T13:29:21.843Z,74.21
2023-01-04T13:32:05.323Z,74.30
2023-01-04T13:34:36.601Z,74.27
2023-01-04T13:37:18.942Z,74.71
2023-01-04T13:39:49.893Z,74.46
2023-01-04T13:42:29.438Z,74.79
2023-01-04T13:45:20.158Z,75.34
2023-01-04T13:47:52.245Z,75.56
2023-01-04T13:50:31.425Z,75.35
2023-01-04T13:53:07.448Z,75.23
2023-01-04T13:55:38.456Z,75.38
2023-01-04T13:58:20.913Z,75.15
2023-01-04T14:00:53.762Z,75.17
2023-01-04T14:03:30.397Z,74.15
2023-01-04T14:06:23.251Z,74.66
2023-01-04T14:08:51.571Z,75.13
2023-01-04T14:11:46.904Z,74.74
2023-01-04T14:14:30.280Z,73.86
2023-01-04T14:17:12.887Z,73.39
2023-01-04T14:19:51.227Z,74.14
2023-01-04T14:22:35.679Z,74.83
2023-01-04T14:25:34.227Z,75.00
2023-01-04T14:28:28.576Z,74.93
2023-01-04T14:30:59.448Z,74.97
2023-01-04T14:33:41.795Z,74.93
2023-01-04T14:36:09.769Z,75.19
2023-01-04T14:38:44.275Z,75.58
2023-01-04T14:41:18.264Z,76.10
2023-01-04T14:43:49.363Z,76.42
2023-01-04T14:46:17.118Z,75.95
2023-01-04T14:48:44.443Z,76.27
2023-01-04T14:51:16.897Z,76.35
2023-01-04T14:53:44.694Z,76.21
2023-01-04T14:56:14.358Z,76.62
2023-01-04T14:58:42.462Z,77.32
2023-01-04T15:01:11.056Z,76.98
2023-01-04T15:03:38.743Z,76.46
2023-01-04T15:06:06.877Z,77.35
2023-01-04T15:08:34.738Z,77.13
2023-01-04T15:11:02.682Z,77.88
2023-01-04T15:13:38.419Z,78.17
2023-01-04T15:16:10.186Z,78.42
2023-01-04T15:18:37.593Z,78.83
2023-01-04T15:21:05.448Z,78.66
2023-01-04T15:23:33.121Z,79.24
2023-01-04T15:26:02.041Z,79.62
2023-01-04T15:28:29.558Z,78.96
2023-01-04T15:30:57.320Z,78.93
2023-01-04T15:33:25.039Z,79.13
2023-01-04T15:36:00.487Z,79.10
2023-01-04T15:38:28.335Z,78.36
2023-01-04T15:41:36.159Z,78.19
2023-01-04T15:44:04.774Z,78.68
2023-01-04T15:46:32.280Z,80.38
2023-01-04T15:48:59.776Z,80.48
2023-01-04T15:51:27.545Z,80.43
2023-01-04T15:53:54.977Z,80.62
2023-01-04T15:56:22.642Z,80.69
2023-01-04T15:58:55.299Z,81.18
2023-01-04T16:01:23.271Z,80.34
2023-01-04T16:03:53.897Z,79.75
2023-01-04T16:06:22.724Z,80.41
2023-01-04T16:08:52.143Z,80.38
2023-01-04T16:11:23.427Z,80.03
2023-01-04T16:13:53.620Z,80.79
2023-01-04T16:16:27.588Z,80.95
2023-01-04T16:18:57.285Z,81.32
2023-01-04T16:21:28.105Z,81.14
2023-01-04T16:24:06.941Z,81.37
2023-01-04T16:26:40.818Z,80.68
2023-01-04T16:29:08.859Z,80.37
2023-01-04T16:31:38.038Z,79.96
2023-01-04T16:34:06.268Z,81.07
2023-01-04T16:36:33.683Z,81.03
2023-01-04T16:39:01.895Z,81.38
2023-01-04T16:41:29.741Z,81.87
2023-01-04T16:43:59.637Z,81.61
2023-01-04T16:46:27.102Z,82.96
2023-01-04T16:48:59.847Z,83.15
2023-01-04T16:51:29.008Z,83.83
2023-01-04T16:53:56.708Z,84.41
2023-01-04T16:56:25.328Z,84.05
2023-01-04T16:58:52.767Z,84.44
2023-01-04T17:01:26.566Z,84.34
2023-01-04T17:03:56.548Z,84.26
2023-01-04T17:06:27.347Z,83.76
2023-01-04T17:08:56.014Z,83.77
2023-01-04T17:14:13.893Z,84.46
2023-01-04T17:16:42.485Z,83.90
2023-01-04T17:19:09.961Z,84.36
2023-01-04T17:21:37.363Z,84.55
2023-01-04T17:24:05.358Z,84.62
2023-01-04T17:26:33.360Z,84.05
2023-01-04T17:29:01.915Z,83.76
2023-01-04T17:31:32.746Z,83.48
2023-01-04T17:34:00.312Z,84.41
2023-01-04T17:36:27.763Z,84.26
2023-01-04T17:38:56.189Z,83.84
2023-01-04T17:41:25.347Z,83.58
2023-01-04T17:43:57.518Z,83.68
2023-01-04T17:46:25.493Z,83.73
2023-01-04T17:49:17.693Z,83.00
2023-01-04T17:51:40.807Z,83.57
2023-01-04T17:54:11.158Z,84.40
2023-01-04T17:56:38.580Z,84.04
2023-01-04T17:59:09.593Z,83.71
2023-01-04T18:01:37.168Z,84.32
2023-01-04T18:04:05.217Z,84.60
2023-01-04T18:06:35.973Z,84.53
2023-01-04T18:09:05.641Z,84.63
2023-01-04T18:11:34.173Z,84.37
2023-01-04T18:14:05.826Z,84.11
2023-01-04T18:16:57.133Z,84.10
2023-01-04T18:19:27.258Z,84.50
2023-01-04T18:21:55.554Z,84.30
2023-01-04T18:24:35.848Z,84.25
2023-01-04T18:27:23.626Z,84.60
2023-01-04T18:29:53.882Z,85.08
2023-01-04T18:32:23.639Z,85.08
2023-01-04T18:34:51.003Z,85.15
2023-01-04T18:37:19.129Z,84.73
2023-01-04T18:39:48.532Z,84.69
2023-01-04T18:42:16.412Z,85.01
2023-01-04T18:44:50.832Z,85.31
2023-01-04T18:47:20.152Z,85.40
2023-01-04T18:49:50.731Z,85.27
2023-01-04T18:52:20.115Z,85.48
2023-01-04T18:54:48.796Z,85.79
2023-01-04T18:57:16.738Z,86.14
2023-01-04T18:59:44.459Z,85.85
2023-01-04T19:02:17.424Z,85.66
2023-01-04T19:04:45.373Z,85.20
2023-01-04T19:07:12.849Z,85.17
2023-01-04T19:09:40.374Z,85.97
2023-01-04T19:12:08.292Z,85.98
2023-01-04T19:14:35.593Z,86.36
2023-01-04T19:17:03.018Z,85.53
2023-01-04T19:19:30.776Z,85.75
2023-01-04T19:21:58.166Z,85.00
2023-01-04T19:24:25.594Z,85.70
2023-01-04T19:26:55.220Z,85.59
2023-01-04T19:29:23.030Z,85.50
2023-01-04T19:31:50.416Z,84.94
2023-01-04T19:34:18.067Z,85.11
2023-01-04T19:36:45.607Z,84.79
2023-01-04T19:39:12.916Z,84.93
2023-01-04T19:41:40.619Z,86.02
2023-01-04T19:44:11.403Z,85.82
2023-01-04T19:46:40.365Z,85.56
2023-01-04T19:49:14.504Z,85.64
2023-01-04T19:51:45.558Z,85.90
2023-01-04T19:54:14.178Z,86.58
2023-01-04T19:56:42.021Z,86.14
2023-01-04T19:59:10.141Z,85.69
2023-01-04T20:01:38.359Z,85.16
2023-01-04T20:04:06.189Z,84.17
2023-01-04T20:06:33.696Z,84.15
2023-01-04T20:09:01.097Z,82.78
2023-01-04T20:11:29.068Z,83.90
2023-01-04T20:13:56.467Z,86.13
2023-01-04T20:16:23.909Z,85.03
2023-01-04T20:18:54.990Z,83.85
2023-01-04T20:21:22.378Z,84.34
2023-01-04T20:23:50.185Z,84.63
2023-01-04T20:26:19.346Z,86.40
2023-01-04T20:28:46.781Z,86.58
2023-01-04T20:31:15.979Z,85.57
2023-01-04T20:33:44.337Z,85.30
2023-01-04T20:36:23.646Z,85.78
2023-01-04T20:38:51.438Z,85.53
2023-01-04T20:41:21.497Z,85.58
2023-01-04T20:43:50.403Z,85.07
2023-01-04T20:46:22.655Z,84.38
2023-01-04T20:48:50.469Z,85.08
2023-01-04T20:51:23.571Z,85.30
2023-01-04T20:53:52.125Z,85.43
2023-01-04T20:56:25.479Z,85.35
2023-01-04T20:58:53.411Z,84.84
2023-01-04T21:01:22.257Z,84.28
2023-01-04T21:03:50.038Z,84.18
2023-01-04T21:06:18.813Z,83.79
2023-01-04T21:08:47.007Z,83.43
2023-01-04T21:11:14.891Z,83.45
2023-01-04T21:13:42.938Z,83.53
2023-01-04T21:16:11.899Z,83.31
2023-01-04T21:18:39.368Z,82.90
2023-01-04T21:21:08.344Z,82.68
2023-01-04T21:23:38.410Z,82.30
2023-01-04T21:26:08.416Z,82.41
2023-01-04T21:28:36.290Z,82.65
2023-01-04T21:31:10.132Z,82.80
2023-01-04T21:33:39.009Z,82.78
2023-01-04T21:36:19.437Z,83.86
2023-01-04T21:38:51.767Z,84.52
2023-01-04T21:41:19.765Z,84.98
2023-01-04T21:43:47.592Z,84.40
2023-01-04T21:46:15.795Z,84.96
2023-01-04T21:48:44.817Z,85.08
2023-01-04T21:51:13.220Z,84.68
2023-01-04T21:53:41.931Z,84.10
2023-01-04T21:56:18.875Z,85.15
2023-01-04T21:58:46.804Z,86.19
2023-01-04T22:01:29.842Z,86.44
2023-01-04T22:04:00.407Z,86.70
2023-01-04T22:06:27.935Z,85.95
2023-01-04T22:08:55.468Z,88.41
2023-01-04T22:11:23.298Z,88.47
2023-01-04T22:13:50.956Z,89.05
2023-01-04T22:16:18.580Z,89.30
2023-01-04T22:18:51.029Z,90.22
2023-01-04T22:21:20.500Z,89.90
2023-01-04T22:23:48.413Z,90.26
2023-01-04T22:26:16.047Z,90.28
2023-01-04T22:28:43.322Z,90.00
2023-01-04T22:31:13.547Z,90.12
2023-01-04T22:33:41.710Z,90.39
2023-01-04T22:36:19.056Z,89.89
2023-01-04T22:38:50.294Z,89.84
2023-01-04T22:41:19.276Z,89.98
2023-01-04T22:43:47.337Z,89.28
2023-01-04T22:46:17.802Z,89.22
2023-01-04T22:48:45.943Z,89.11
2023-01-04T22:51:15.847Z,89.44
2023-01-04T22:53:44.558Z,88.98
2023-01-04T22:56:19.359Z,87.71
2023-01-04T22:58:55.297Z,87.65
2023-01-04T23:01:26.430Z,87.16
2023-01-04T23:03:55.117Z,86.07
2023-01-04T23:06:24.019Z,87.29
2023-01-04T23:08:56.344Z,87.86
2023-01-04T23:11:24.175Z,88.89
2023-01-04T23:13:52.383Z,88.72
2023-01-04T23:16:26.285Z,88.84
2023-01-04T23:18:57.598Z,88.61
2023-01-04T23:21:24.917Z,88.74
2023-01-04T23:23:52.236Z,88.12
2023-01-04T23:26:23.119Z,87.69
2023-01-04T23:28:51.174Z,87.52
2023-01-04T23:31:21.642Z,87.11
2023-01-04T23:33:53.924Z,87.45
2023-01-04T23:36:26.655Z,87.51
2023-01-04T23:38:57.406Z,87.52
2023-01-04T23:41:54.305Z,87.35
2023-01-04T23:44:24.147Z,87.32
2023-01-04T23:46:56.873Z,87.28
2023-01-04T23:49:25.701Z,87.14
2023-01-04T23:51:53.339Z,87.04
2023-01-04T23:54:21.483Z,86.98
2023-01-04T23:56:49.240Z,89.00
2023-01-04T23:59:16.765Z,88.50
